createdAt,value
2023-02-16T00:00:17.421Z,85.83
2023-02-16T00:05:23.044Z,85.93
2023-02-16T00:10:15.179Z,86.16
2023-02-16T00:15:18.226Z,85.94
2023-02-16T00:20:16.163Z,86.06
2023-02-16T00:25:15.429Z,85.98
2023-02-16T00:30:17.726Z,86.16
2023-02-16T00:35:16.381Z,86.31
2023-02-16T00:40:16.583Z,86.76
2023-02-16T00:45:18.956Z,86.80
2023-02-16T00:50:18.600Z,86.83
2023-02-16T00:55:17.188Z,86.86
2023-02-16T01:00:20.085Z,86.77
2023-02-16T01:05:15.932Z,86.33
2023-02-16T01:10:25.810Z,86.39
2023-02-16T01:15:20.336Z,86.12
2023-02-16T01:20:16.804Z,85.89
2023-02-16T01:25:15.147Z,85.97
2023-02-16T01:30:19.120Z,86.05
2023-02-16T01:35:15.101Z,86.14
2023-02-16T01:40:26.224Z,86.23
2023-02-16T01:45:18.874Z,86.24
2023-02-16T01:50:18.146Z,86.05
2023-02-16T01:55:23.190Z,86.10
2023-02-16T02:00:21.525Z,86.08
2023-02-16T02:05:32.182Z,85.93
2023-02-16T02:10:19.938Z,85.82
2023-02-16T02:15:16.870Z,85.84
2023-02-16T02:20:21.860Z,85.79
2023-02-16T02:25:34.823Z,85.85
2023-02-16T02:30:31.268Z,85.68
2023-02-16T02:35:26.145Z,85.62
2023-02-16T02:40:21.919Z,85.81
2023-02-16T02:45:21.108Z,85.95
2023-02-16T02:50:31.202Z,86.18
2023-02-16T02:55:25.126Z,85.91
2023-02-16T03:00:30.227Z,86.02
2023-02-16T03:05:19.555Z,85.92
2023-02-16T03:10:28.404Z,85.92
2023-02-16T03:15:16.398Z,86.00
2023-02-16T03:20:25.892Z,86.02
2023-02-16T03:25:25.774Z,85.88
2023-02-16T03:30:17.309Z,85.88
2023-02-16T03:35:15.273Z,85.88
2023-02-16T03:40:26.530Z,86.06
2023-02-16T03:45:15.042Z,86.42
2023-02-16T03:50:15.925Z,86.33
2023-02-16T03:55:15.299Z,86.26
2023-02-16T04:00:15.122Z,86.23
2023-02-16T04:05:15.132Z,86.02
2023-02-16T04:10:15.079Z,85.95
2023-02-16T04:15:17.427Z,85.95
2023-02-16T04:20:17.849Z,85.95
2023-02-16T04:25:15.829Z,85.89
2023-02-16T04:30:17.978Z,85.91
2023-02-16T04:35:16.146Z,85.88
2023-02-16T04:40:17.991Z,85.98
2023-02-16T04:45:15.054Z,86.08
2023-02-16T04:50:14.951Z,86.02
2023-02-16T04:55:14.760Z,85.83
2023-02-16T05:00:15.208Z,86.05
2023-02-16T05:05:15.057Z,86.25
2023-02-16T05:10:14.968Z,86.04
2023-02-16T05:15:14.963Z,85.90
2023-02-16T05:20:15.082Z,85.88
2023-02-16T05:25:14.728Z,85.96
2023-02-16T05:30:14.929Z,85.94
2023-02-16T05:35:14.984Z,85.99
2023-02-16T05:40:14.748Z,85.71
2023-02-16T05:45:14.991Z,85.63
2023-02-16T05:50:15.008Z,85.43
2023-02-16T05:55:14.820Z,85.42
2023-02-16T06:00:16.041Z,85.19
2023-02-16T06:05:14.988Z,84.94
2023-02-16T06:10:15.364Z,85.08
2023-02-16T06:15:14.850Z,84.90
2023-02-16T06:20:15.008Z,84.70
2023-02-16T06:25:14.827Z,84.34
2023-02-16T06:30:15.257Z,84.10
2023-02-16T06:35:15.508Z,83.91
2023-02-16T06:43:30.887Z,83.71
2023-02-16T06:45:14.657Z,83.24
2023-02-16T06:50:16.822Z,82.71
2023-02-16T06:55:14.636Z,81.90
2023-02-16T07:00:15.634Z,81.24
2023-02-16T07:05:14.861Z,80.39
2023-02-16T07:10:15.019Z,79.32
2023-02-16T07:15:14.848Z,78.32
2023-02-16T07:37:09.738Z,66.26
2023-02-16T07:42:04.834Z,62.42
2023-02-16T07:47:04.964Z,60.62
2023-02-16T07:52:05.098Z,59.84
2023-02-16T07:57:05.007Z,60.16
2023-02-16T08:02:05.554Z,58.34
2023-02-16T08:07:04.970Z,55.34
2023-02-16T08:12:08.308Z,53.89
2023-02-16T08:17:06.736Z,49.79
2023-02-16T08:22:06.208Z,46.99
2023-02-16T08:27:05.188Z,44.57
2023-02-16T08:32:06.927Z,45.31
2023-02-16T08:37:05.059Z,41.10
2023-02-16T08:42:04.987Z,40.67
2023-02-16T08:47:05.018Z,39.28
2023-02-16T08:52:05.216Z,39.52
2023-02-16T08:57:04.958Z,39.99
2023-02-16T09:02:04.954Z,39.74
2023-02-16T09:07:04.899Z,39.50
2023-02-16T09:12:05.877Z,38.13
2023-02-16T09:17:05.233Z,36.90
2023-02-16T09:22:04.945Z,36.03
2023-02-16T09:27:05.976Z,34.35
2023-02-16T09:32:05.521Z,33.89
2023-02-16T09:37:05.007Z,33.39
2023-02-16T09:42:21.317Z,31.91
2023-02-16T09:47:15.076Z,33.95
2023-02-16T09:52:15.743Z,33.84
2023-02-16T09:57:12.276Z,31.79
2023-02-16T10:02:24.667Z,34.58
2023-02-16T10:07:19.406Z,35.09
2023-02-16T10:12:10.146Z,33.05
2023-02-16T10:17:15.869Z,32.07
2023-02-16T10:22:07.384Z,30.95
2023-02-16T10:27:09.324Z,30.70
2023-02-16T10:32:15.744Z,30.07
2023-02-16T10:37:15.113Z,30.34
2023-02-16T10:42:16.662Z,29.73
2023-02-16T10:47:15.350Z,27.93
2023-02-16T10:52:07.168Z,34.60
2023-02-16T10:57:12.307Z,38.94
2023-02-16T11:02:16.841Z,41.15
2023-02-16T11:07:07.910Z,43.45
2023-02-16T11:12:15.923Z,44.67
2023-02-16T11:17:07.665Z,45.51
2023-02-16T11:22:06.418Z,45.57
2023-02-16T11:27:13.724Z,46.22
2023-02-16T11:32:07.033Z,47.06
2023-02-16T11:37:12.219Z,47.73
2023-02-16T11:42:09.369Z,48.40
2023-02-16T11:47:16.967Z,48.96
2023-02-16T11:52:20.046Z,49.87
2023-02-16T11:57:08.255Z,49.98
2023-02-16T12:02:24.745Z,50.84
2023-02-16T12:07:14.610Z,51.06
2023-02-16T12:12:11.852Z,51.67
2023-02-16T12:17:17.951Z,51.67
2023-02-16T12:22:15.751Z,52.44
2023-02-16T12:27:15.853Z,52.50
2023-02-16T12:32:15.934Z,52.23
2023-02-16T12:37:12.979Z,52.90
2023-02-16T12:42:21.435Z,52.73
2023-02-16T12:47:12.575Z,52.79
2023-02-16T12:52:10.911Z,53.36
2023-02-16T12:57:09.699Z,53.76
2023-02-16T13:02:14.057Z,54.82
2023-02-16T13:07:17.138Z,55.33
2023-02-16T13:12:11.231Z,55.24
2023-02-16T13:17:13.174Z,55.68
2023-02-16T13:22:24.621Z,55.65
2023-02-16T13:27:15.182Z,56.06
2023-02-16T13:32:17.829Z,56.11
2023-02-16T13:37:22.561Z,55.50
2023-02-16T13:42:24.518Z,56.01
2023-02-16T13:47:06.145Z,56.43
2023-02-16T13:52:07.637Z,56.61
2023-02-16T13:57:10.769Z,56.84
2023-02-16T14:02:11.393Z,56.64
2023-02-16T14:07:24.779Z,56.55
2023-02-16T14:12:15.524Z,56.96
2023-02-16T14:17:15.838Z,57.72
2023-02-16T14:22:10.549Z,58.58
2023-02-16T14:27:07.347Z,60.06
2023-02-16T14:32:21.040Z,60.42
2023-02-16T14:37:19.220Z,61.22
2023-02-16T14:42:07.244Z,61.79
2023-02-16T14:47:20.215Z,62.75
2023-02-16T14:52:26.024Z,63.30
2023-02-16T14:57:07.512Z,64.04
2023-02-16T15:02:24.397Z,64.93
2023-02-16T15:07:05.233Z,65.19
2023-02-16T15:12:20.391Z,65.79
2023-02-16T15:17:06.596Z,65.53
2023-02-16T15:22:18.114Z,66.41
2023-02-16T15:27:04.964Z,66.52
2023-02-16T15:32:06.018Z,68.10
2023-02-16T15:37:23.417Z,68.08
2023-02-16T15:42:19.786Z,68.60
2023-02-16T15:47:06.158Z,69.21
2023-02-16T15:52:08.891Z,69.48
2023-02-16T15:57:15.322Z,70.36
2023-02-16T16:02:12.434Z,70.65
2023-02-16T16:07:06.200Z,71.70
2023-02-16T16:12:09.732Z,71.69
2023-02-16T16:17:05.429Z,72.30
2023-02-16T16:22:24.897Z,72.09
2023-02-16T16:27:07.181Z,71.93
2023-02-16T16:32:05.732Z,72.31
2023-02-16T16:37:06.633Z,71.87
2023-02-16T16:42:14.958Z,71.70
2023-02-16T16:47:19.830Z,72.01
2023-02-16T16:52:05.356Z,72.12
2023-02-16T16:57:14.091Z,72.24
2023-02-16T17:02:04.640Z,72.04
2023-02-16T17:07:04.512Z,72.17
2023-02-16T17:12:05.634Z,72.10
2023-02-16T17:17:07.634Z,71.72
2023-02-16T17:22:11.296Z,71.89
2023-02-16T17:27:05.222Z,71.77
2023-02-16T17:32:05.097Z,72.18
2023-02-16T17:37:06.477Z,72.25
2023-02-16T17:42:09.789Z,72.42
2023-02-16T17:47:04.638Z,72.24
2023-02-16T17:52:05.106Z,72.69
2023-02-16T17:57:04.993Z,72.68
2023-02-16T18:02:04.713Z,73.00
2023-02-16T18:07:04.384Z,72.57
2023-02-16T18:12:05.068Z,72.86
2023-02-16T18:17:05.964Z,73.19
2023-02-16T18:22:04.585Z,73.26
2023-02-16T18:27:04.623Z,73.38
2023-02-16T18:32:04.538Z,73.29
2023-02-16T18:37:04.382Z,73.86
2023-02-16T18:42:04.736Z,73.87
2023-02-16T18:47:04.418Z,73.50
2023-02-16T18:52:05.007Z,73.98
2023-02-16T18:57:04.702Z,74.38
2023-02-16T19:02:04.979Z,74.55
2023-02-16T19:07:04.587Z,74.33
2023-02-16T19:12:04.849Z,74.81
2023-02-16T19:17:04.474Z,74.63
2023-02-16T19:22:04.556Z,75.00
2023-02-16T19:27:04.497Z,74.82
2023-02-16T19:32:04.666Z,75.19
2023-02-16T19:37:04.462Z,75.33
2023-02-16T19:42:04.886Z,75.69
2023-02-16T19:47:04.538Z,75.84
2023-02-16T19:52:04.946Z,75.67
2023-02-16T19:57:04.511Z,75.83
2023-02-16T20:02:04.526Z,75.79
2023-02-16T20:07:04.843Z,76.24
2023-02-16T20:12:05.840Z,76.25
2023-02-16T20:17:04.382Z,76.45
2023-02-16T20:22:04.502Z,76.89
2023-02-16T20:27:04.608Z,77.02
2023-02-16T20:32:05.004Z,77.28
2023-02-16T20:37:04.244Z,77.74
2023-02-16T20:42:04.591Z,77.76
2023-02-16T20:47:07.046Z,77.89
2023-02-16T20:48:49.002Z,77.89
2023-02-16T20:52:04.386Z,77.61
2023-02-16T20:57:04.890Z,78.32
2023-02-16T21:02:04.400Z,77.94
2023-02-16T21:07:04.386Z,77.91
2023-02-16T21:12:05.023Z,78.29
2023-02-16T21:17:04.294Z,78.29
2023-02-16T21:22:04.296Z,78.47
2023-02-16T21:27:04.504Z,78.88
2023-02-16T21:32:04.332Z,79.06
2023-02-16T21:37:04.372Z,79.21
2023-02-16T21:42:04.579Z,78.96
2023-02-16T21:47:14.242Z,79.15
2023-02-16T21:52:04.357Z,79.23
2023-02-16T21:57:04.476Z,78.83
2023-02-16T22:02:04.381Z,78.75
2023-02-16T22:07:04.382Z,79.12
2023-02-16T22:12:04.702Z,79.41
2023-02-16T22:17:06.653Z,79.43
2023-02-16T22:22:04.372Z,79.73
2023-02-16T22:27:04.656Z,79.51
2023-02-16T22:32:04.233Z,79.40
2023-02-16T22:37:04.455Z,79.70
2023-02-16T22:42:04.632Z,79.53
2023-02-16T22:47:04.176Z,79.70
2023-02-16T22:52:04.521Z,79.73
2023-02-16T22:57:06.190Z,79.62
2023-02-16T23:02:04.143Z,79.94
2023-02-16T23:07:05.924Z,79.90
2023-02-16T23:12:04.443Z,79.81
2023-02-16T23:17:04.237Z,79.97
2023-02-16T23:22:04.123Z,79.41
2023-02-16T23:27:04.615Z,79.28
2023-02-16T23:32:04.389Z,79.28
2023-02-16T23:37:04.580Z,79.28
2023-02-16T23:42:04.539Z,79.33
2023-02-16T23:47:04.261Z,79.29
2023-02-16T23:50:25.004Z,79.29
2023-02-16T23:52:04.099Z,79.21
2023-02-16T23:57:04.989Z,79.25
